createdAt,value
2019-03-30T00:00:02.246Z,93.0847
2019-03-30T00:00:14.433Z,93.0847
2019-03-30T00:00:26.603Z,93.0847
2019-03-30T00:00:38.817Z,93.1458
2019-03-30T00:00:50.999Z,93.0847
2019-03-30T00:01:03.171Z,93.0847
2019-03-30T00:01:15.495Z,93.0847
2019-03-30T00:01:27.701Z,93.1885
2019-03-30T00:01:39.885Z,93.2922
2019-03-30T00:01:52.232Z,93.3960
2019-03-30T00:02:04.581Z,93.3960
2019-03-30T00:02:17.031Z,93.1885
2019-03-30T00:02:29.213Z,92.9810
2019-03-30T00:02:41.395Z,92.8772
2019-03-30T00:02:53.583Z,92.9810
2019-03-30T00:03:05.762Z,93.2922
2019-03-30T00:03:17.960Z,93.4998
2019-03-30T00:03:30.160Z,93.7134
2019-03-30T00:03:42.347Z,94.0247
2019-03-30T00:03:54.534Z,94.3359
2019-03-30T00:04:06.723Z,94.5496
2019-03-30T00:04:18.911Z,94.4397
2019-03-30T00:04:31.094Z,94.3359
2019-03-30T00:04:43.290Z,94.3359
2019-03-30T00:04:55.472Z,94.2322
2019-03-30T00:05:07.667Z,93.8171
2019-03-30T00:05:19.863Z,93.4387
2019-03-30T00:05:32.060Z,93.0237
2019-03-30T00:05:44.252Z,92.8162
2019-03-30T00:05:56.435Z,92.7063
2019-03-30T00:06:08.627Z,92.9199
2019-03-30T00:06:20.823Z,93.0237
2019-03-30T00:06:33.034Z,93.1274
2019-03-30T00:06:45.236Z,93.2312
2019-03-30T00:06:57.411Z,93.3350
2019-03-30T00:07:09.610Z,93.5425
2019-03-30T00:07:21.807Z,93.8599
2019-03-30T00:07:33.992Z,93.9636
2019-03-30T00:07:46.182Z,93.9636
2019-03-30T00:07:58.373Z,94.0674
2019-03-30T00:08:10.551Z,94.4885
2019-03-30T00:08:22.761Z,94.6533
2019-03-30T00:08:34.950Z,94.9646
2019-03-30T00:08:47.203Z,95.0684
2019-03-30T00:08:59.402Z,95.0684
2019-03-30T00:09:10.602Z,95.0684
2019-03-30T00:09:22.803Z,95.1721
2019-03-30T00:09:34.984Z,95.1721
2019-03-30T00:09:47.246Z,95.1721
2019-03-30T00:09:59.442Z,95.0256
2019-03-30T00:10:11.649Z,95.0256
2019-03-30T00:10:23.859Z,94.8181
2019-03-30T00:10:36.060Z,94.7144
2019-03-30T00:10:48.258Z,94.6106
2019-03-30T00:11:00.453Z,94.5007
2019-03-30T00:11:12.634Z,94.5007
2019-03-30T00:11:24.843Z,94.3970
2019-03-30T00:11:37.030Z,94.6106
2019-03-30T00:11:49.210Z,94.6716
2019-03-30T00:12:01.394Z,94.5679
2019-03-30T00:12:12.609Z,94.3115
2019-03-30T00:12:24.802Z,94.2078
2019-03-30T00:12:37.012Z,94.0002
2019-03-30T00:12:49.221Z,93.6462
2019-03-30T00:13:01.410Z,93.1824
2019-03-30T00:13:13.602Z,92.5598
2019-03-30T00:13:25.924Z,91.7236
2019-03-30T00:13:37.114Z,90.9546
2019-03-30T00:13:49.707Z,90.6433
2019-03-30T00:14:01.945Z,90.3259
2019-03-30T00:14:14.190Z,89.8682
2019-03-30T00:14:26.517Z,89.4531
2019-03-30T00:14:37.704Z,89.0381
2019-03-30T00:14:49.912Z,88.5803
2019-03-30T00:15:02.103Z,88.1653
2019-03-30T00:15:14.305Z,87.6038
2019-03-30T00:15:26.492Z,86.9812
2019-03-30T00:15:38.673Z,86.0413
2019-03-30T00:15:49.860Z,85.1074
2019-03-30T00:16:02.050Z,84.5886
2019-03-30T00:16:14.244Z,84.1675
2019-03-30T00:16:26.572Z,83.9600
2019-03-30T00:16:38.766Z,83.8562
2019-03-30T00:16:50.955Z,83.7524
2019-03-30T00:17:03.164Z,83.6487
2019-03-30T00:17:15.350Z,83.5449
2019-03-30T00:17:27.530Z,83.4778
2019-03-30T00:17:39.728Z,83.5815
2019-03-30T00:17:51.913Z,83.5815
2019-03-30T00:18:04.102Z,83.6853
2019-03-30T00:18:16.290Z,83.7952
2019-03-30T00:18:28.479Z,83.9355
2019-03-30T00:18:41.524Z,83.8318
2019-03-30T00:18:53.844Z,83.9355
2019-03-30T00:19:06.023Z,84.3872
2019-03-30T00:19:18.213Z,84.7046
2019-03-30T00:19:35.118Z,85.2234
2019-03-30T00:19:47.819Z,85.8459
2019-03-30T00:20:00.008Z,86.1633
2019-03-30T00:20:11.196Z,86.3708
2019-03-30T00:20:23.396Z,86.5784
2019-03-30T00:20:34.592Z,86.6821
2019-03-30T00:20:46.788Z,86.8286
2019-03-30T00:20:58.984Z,87.0361
2019-03-30T00:21:11.172Z,87.2437
2019-03-30T00:21:22.482Z,87.4512
2019-03-30T00:21:33.686Z,87.5549
2019-03-30T00:21:45.878Z,87.6587
2019-03-30T00:21:57.066Z,87.8662
2019-03-30T00:22:09.273Z,87.8662
2019-03-30T00:22:21.458Z,87.9700
2019-03-30T00:22:33.652Z,88.0798
2019-03-30T00:22:45.869Z,88.1165
2019-03-30T00:22:58.072Z,88.2202
2019-03-30T00:23:10.268Z,88.2202
2019-03-30T00:23:22.458Z,88.3240
2019-03-30T00:23:34.649Z,88.3240
2019-03-30T00:23:47.195Z,88.4277
2019-03-30T00:23:59.420Z,88.5315
2019-03-30T00:24:11.600Z,88.5315
2019-03-30T00:24:23.790Z,88.6414
2019-03-30T00:24:35.982Z,88.6414
2019-03-30T00:24:48.180Z,88.7451
2019-03-30T00:25:00.374Z,88.7451
2019-03-30T00:25:12.559Z,88.7451
2019-03-30T00:25:24.737Z,88.7817
2019-03-30T00:25:37.031Z,88.8855
2019-03-30T00:25:49.232Z,88.9526
2019-03-30T00:26:01.410Z,88.9893
2019-03-30T00:26:13.618Z,88.8489
2019-03-30T00:26:25.823Z,88.7817
2019-03-30T00:26:38.028Z,88.6780
2019-03-30T00:26:50.220Z,88.6780
2019-03-30T00:27:02.407Z,88.6780
2019-03-30T00:27:14.589Z,88.7817
2019-03-30T00:27:25.787Z,88.7817
2019-03-30T00:27:37.976Z,88.7817
2019-03-30T00:27:50.166Z,88.9893
2019-03-30T00:28:02.356Z,89.2029
2019-03-30T00:28:14.540Z,89.4104
2019-03-30T00:28:26.736Z,89.6179
2019-03-30T00:28:38.926Z,89.7217
2019-03-30T00:28:51.106Z,89.8254
2019-03-30T00:29:03.317Z,89.8254
2019-03-30T00:29:15.522Z,89.8254
2019-03-30T00:29:27.736Z,89.8254
2019-03-30T00:29:40.040Z,89.8254
2019-03-30T00:29:52.236Z,89.8254
2019-03-30T00:30:04.442Z,89.7827
2019-03-30T00:30:19.162Z,89.8926
2019-03-30T00:30:31.606Z,89.8926
2019-03-30T00:30:43.799Z,89.8926
2019-03-30T00:30:55.986Z,89.8926
2019-03-30T00:31:08.178Z,89.7827
2019-03-30T00:31:20.372Z,89.6790
2019-03-30T00:31:32.569Z,89.4714
2019-03-30T00:31:44.766Z,89.1602
2019-03-30T00:31:56.952Z,89.0564
2019-03-30T00:32:09.144Z,88.9526
2019-03-30T00:32:21.328Z,88.8489
2019-03-30T00:32:33.526Z,88.7451
2019-03-30T00:32:45.708Z,88.6414
2019-03-30T00:32:57.916Z,88.5742
2019-03-30T00:33:10.126Z,88.4705
2019-03-30T00:33:22.308Z,88.1592
2019-03-30T00:33:34.502Z,88.0554
2019-03-30T00:33:46.706Z,87.9517
2019-03-30T00:33:58.891Z,87.8418
2019-03-30T00:34:11.107Z,87.9517
2019-03-30T00:34:23.301Z,88.3667
2019-03-30T00:34:35.482Z,88.7817
2019-03-30T00:34:47.673Z,89.0991
2019-03-30T00:34:59.862Z,89.3066
2019-03-30T00:35:12.047Z,89.4104
2019-03-30T00:35:24.264Z,89.6179
2019-03-30T00:35:36.468Z,89.8254
2019-03-30T00:35:48.662Z,89.9292
2019-03-30T00:36:00.858Z,90.0330
2019-03-30T00:36:13.042Z,90.1428
2019-03-30T00:36:25.348Z,90.2466
2019-03-30T00:36:37.579Z,90.2466
2019-03-30T00:36:49.789Z,90.3503
2019-03-30T00:37:01.978Z,90.3503
2019-03-30T00:37:14.192Z,90.4541
2019-03-30T00:37:25.376Z,90.4541
2019-03-30T00:37:37.577Z,90.5579
2019-03-30T00:37:49.791Z,90.4541
2019-03-30T00:38:00.980Z,90.3503
2019-03-30T00:38:13.181Z,90.3503
2019-03-30T00:38:25.385Z,90.2466
2019-03-30T00:38:37.608Z,90.1428
2019-03-30T00:38:48.790Z,90.1428
2019-03-30T00:39:00.991Z,90.1428
2019-03-30T00:39:13.202Z,90.0330
2019-03-30T00:39:25.384Z,89.9292
2019-03-30T00:39:37.581Z,89.9292
2019-03-30T00:39:49.770Z,89.8682
2019-03-30T00:40:01.938Z,89.8682
2019-03-30T00:40:14.126Z,89.9719
2019-03-30T00:40:26.306Z,90.0757
2019-03-30T00:40:37.486Z,90.1794
2019-03-30T00:40:49.776Z,90.2832
2019-03-30T00:41:01.996Z,90.2832
2019-03-30T00:41:14.188Z,90.2832
2019-03-30T00:41:26.368Z,90.3870
2019-03-30T00:41:38.559Z,90.3870
2019-03-30T00:41:50.732Z,90.6006
2019-03-30T00:42:02.926Z,90.7043
2019-03-30T00:42:15.108Z,90.9119
2019-03-30T00:42:26.288Z,91.0156
2019-03-30T00:42:38.467Z,90.9119
2019-03-30T00:42:50.650Z,90.8508
2019-03-30T00:43:02.844Z,90.7471
2019-03-30T00:43:15.007Z,90.7471
2019-03-30T00:43:27.295Z,90.8508
2019-03-30T00:43:39.493Z,91.0583
2019-03-30T00:43:51.676Z,91.0583
2019-03-30T00:44:03.848Z,90.9546
2019-03-30T00:44:16.049Z,90.8508
2019-03-30T00:44:28.238Z,90.8508
2019-03-30T00:44:40.429Z,91.0583
2019-03-30T00:44:52.608Z,91.4307
2019-03-30T00:45:04.798Z,91.5405
2019-03-30T00:45:16.976Z,91.5405
2019-03-30T00:45:29.153Z,91.4307
2019-03-30T00:45:41.346Z,91.3269
2019-03-30T00:45:53.528Z,91.2231
2019-03-30T00:46:05.698Z,91.3269
2019-03-30T00:46:17.862Z,91.3269
2019-03-30T00:46:30.037Z,91.2231
2019-03-30T00:46:42.215Z,91.2231
2019-03-30T00:46:53.402Z,91.2231
2019-03-30T00:47:05.582Z,91.2231
2019-03-30T00:47:17.900Z,91.2231
2019-03-30T00:47:30.113Z,91.2231
2019-03-30T00:47:42.286Z,91.2231
2019-03-30T00:47:54.465Z,91.2231
2019-03-30T00:48:06.640Z,91.3269
2019-03-30T00:48:18.831Z,91.4307
2019-03-30T00:48:31.008Z,91.4307
2019-03-30T00:48:43.175Z,91.3269
2019-03-30T00:48:55.445Z,91.3269
2019-03-30T00:49:07.633Z,91.1194
2019-03-30T00:49:19.823Z,90.8081
2019-03-30T00:49:32.012Z,90.4968
2019-03-30T00:49:49.751Z,90.4297
2019-03-30T00:50:01.474Z,90.4297
2019-03-30T00:50:13.647Z,90.5334
2019-03-30T00:50:24.829Z,90.7471
2019-03-30T00:50:37.032Z,90.8508
2019-03-30T00:50:49.220Z,91.0583
2019-03-30T00:51:01.386Z,91.1621
2019-03-30T00:51:13.569Z,91.3696
2019-03-30T00:51:25.738Z,91.5771
2019-03-30T00:51:36.918Z,91.6870
2019-03-30T00:51:49.236Z,91.7908
2019-03-30T00:52:01.552Z,91.7908
2019-03-30T00:52:13.768Z,91.7908
2019-03-30T00:52:25.950Z,91.7908
2019-03-30T00:52:38.130Z,91.7908
2019-03-30T00:52:50.320Z,91.7236
2019-03-30T00:53:02.508Z,91.6199
2019-03-30T00:53:14.804Z,91.6199
2019-03-30T00:53:25.986Z,91.7236
2019-03-30T00:53:38.183Z,91.9373
2019-03-30T00:53:50.361Z,92.0410
2019-03-30T00:54:02.556Z,92.0410
2019-03-30T00:54:14.728Z,92.0410
2019-03-30T00:54:26.914Z,92.1875
2019-03-30T00:54:39.104Z,92.2913
2019-03-30T00:54:51.295Z,92.4988
2019-03-30T00:55:03.497Z,92.7063
2019-03-30T00:55:15.670Z,92.9199
2019-03-30T00:55:27.857Z,93.1274
2019-03-30T00:55:40.037Z,93.4387
2019-03-30T00:55:52.207Z,93.6523
2019-03-30T00:56:04.401Z,93.9636
2019-03-30T00:56:16.579Z,94.1711
2019-03-30T00:56:28.756Z,94.3787
2019-03-30T00:56:40.931Z,94.4885
2019-03-30T00:56:53.115Z,94.4885
2019-03-30T00:57:05.297Z,94.5923
2019-03-30T00:57:17.481Z,94.6960
2019-03-30T00:57:29.668Z,94.6960
2019-03-30T00:57:41.863Z,94.5923
2019-03-30T00:57:54.047Z,94.3359
2019-03-30T00:58:05.237Z,94.2749
2019-03-30T00:58:16.441Z,94.0247
2019-03-30T00:58:28.642Z,93.8599
2019-03-30T00:58:39.820Z,93.8171
2019-03-30T00:58:52.010Z,93.9209
2019-03-30T00:59:04.198Z,94.0247
2019-03-30T00:59:16.375Z,94.0247
2019-03-30T00:59:28.549Z,93.8171
2019-03-30T00:59:40.717Z,93.4998
2019-03-30T00:59:51.898Z,93.3350
2019-03-30T01:00:04.109Z,93.2312
2019-03-30T01:00:16.281Z,93.2312
2019-03-30T01:00:28.458Z,93.2312
2019-03-30T01:00:40.666Z,93.3350
2019-03-30T01:00:52.843Z,93.3350
2019-03-30T01:01:05.024Z,93.3350
2019-03-30T01:01:17.232Z,93.3350
2019-03-30T01:01:29.417Z,93.2312
2019-03-30T01:01:41.608Z,93.2312
2019-03-30T01:01:53.921Z,93.1274
2019-03-30T01:02:06.116Z,92.9199
2019-03-30T01:02:18.288Z,92.7490
2019-03-30T01:02:30.471Z,92.4377
2019-03-30T01:02:42.655Z,92.3340
2019-03-30T01:02:54.861Z,92.1265
2019-03-30T01:03:07.047Z,92.0593
2019-03-30T01:03:19.219Z,91.9556
2019-03-30T01:03:31.407Z,91.9556
2019-03-30T01:03:43.595Z,92.0593
2019-03-30T01:03:55.778Z,92.0593
2019-03-30T01:04:07.951Z,92.2729
2019-03-30T01:04:20.155Z,92.3767
2019-03-30T01:04:32.341Z,92.5842
2019-03-30T01:04:44.508Z,92.6880
2019-03-30T01:04:56.701Z,92.9382
2019-03-30T01:05:08.878Z,93.1519
2019-03-30T01:05:21.070Z,93.3594
2019-03-30T01:05:33.258Z,93.6707
2019-03-30T01:05:45.442Z,93.9880
2019-03-30T01:05:58.362Z,94.2993
2019-03-30T01:06:09.616Z,94.1956
2019-03-30T01:06:21.785Z,93.9880
2019-03-30T01:06:33.958Z,93.6707
2019-03-30T01:06:46.135Z,93.5059
2019-03-30T01:06:58.308Z,93.4021
2019-03-30T01:07:10.491Z,93.2983
2019-03-30T01:07:22.660Z,93.1946
2019-03-30T01:07:34.854Z,93.1946
2019-03-30T01:07:47.183Z,93.1946
2019-03-30T01:07:59.387Z,93.4021
2019-03-30T01:08:11.587Z,93.8232
2019-03-30T01:08:23.767Z,94.3420
2019-03-30T01:08:35.965Z,94.7632
2019-03-30T01:08:48.146Z,95.2881
2019-03-30T01:09:00.325Z,95.7031
2019-03-30T01:09:12.515Z,95.9778
2019-03-30T01:09:24.687Z,96.0815
2019-03-30T01:09:36.871Z,96.1853
2019-03-30T01:09:49.061Z,96.2891
2019-03-30T01:10:01.237Z,96.4966
2019-03-30T01:10:13.427Z,96.7102
2019-03-30T01:10:25.623Z,96.8750
2019-03-30T01:10:37.807Z,96.9788
2019-03-30T01:10:49.987Z,96.9788
2019-03-30T01:11:02.158Z,96.9788
2019-03-30T01:11:14.329Z,96.9360
2019-03-30T01:11:26.509Z,96.9360
2019-03-30T01:11:38.692Z,96.8262
2019-03-30T01:11:50.878Z,96.8262
2019-03-30T01:12:03.073Z,96.7224
2019-03-30T01:12:14.265Z,96.7224
2019-03-30T01:12:26.453Z,96.6187
2019-03-30T01:12:38.630Z,96.5149
2019-03-30T01:12:50.825Z,96.4111
2019-03-30T01:13:02.999Z,96.4111
2019-03-30T01:13:15.199Z,96.4111
2019-03-30T01:13:27.377Z,96.4111
2019-03-30T01:13:39.548Z,96.5149
2019-03-30T01:13:51.725Z,96.5149
2019-03-30T01:14:03.918Z,96.5149
2019-03-30T01:14:16.095Z,96.5149
2019-03-30T01:14:28.279Z,96.5149
2019-03-30T01:14:40.449Z,96.5149
2019-03-30T01:14:51.635Z,96.4111
2019-03-30T01:15:03.857Z,96.4111
2019-03-30T01:15:16.053Z,96.3074
2019-03-30T01:15:28.251Z,96.2036
2019-03-30T01:15:40.441Z,95.9290
2019-03-30T01:15:52.629Z,95.6177
2019-03-30T01:16:04.817Z,95.5139
2019-03-30T01:16:17.015Z,95.4102
2019-03-30T01:16:29.211Z,95.1965
2019-03-30T01:16:41.395Z,95.0928
2019-03-30T01:16:53.577Z,94.8242
2019-03-30T01:17:05.757Z,94.5129
2019-03-30T01:17:17.941Z,94.2993
2019-03-30T01:17:30.197Z,94.4031
2019-03-30T01:17:42.381Z,94.5129
2019-03-30T01:17:54.547Z,94.6167
2019-03-30T01:18:05.718Z,94.6594
2019-03-30T01:18:17.897Z,94.8669
2019-03-30T01:18:30.082Z,95.2881
2019-03-30T01:18:42.275Z,95.7642
2019-03-30T01:18:54.581Z,96.0815
2019-03-30T01:19:05.777Z,96.2891
2019-03-30T01:19:17.968Z,96.3928
2019-03-30T01:19:30.149Z,96.4966
2019-03-30T01:19:42.338Z,96.4966
2019-03-30T01:20:02.771Z,96.4966
2019-03-30T01:20:10.666Z,96.4355
2019-03-30T01:20:22.838Z,96.3318
2019-03-30T01:20:35.017Z,96.2280
2019-03-30T01:20:47.327Z,96.2280
2019-03-30T01:20:59.525Z,96.3318
2019-03-30T01:21:11.696Z,96.4355
2019-03-30T01:21:23.965Z,96.4355
2019-03-30T01:21:36.157Z,96.3318
2019-03-30T01:21:48.345Z,96.2280
2019-03-30T01:22:00.532Z,96.2280
2019-03-30T01:22:12.759Z,96.2280
2019-03-30T01:22:24.939Z,96.2708
2019-03-30T01:22:37.116Z,96.2708
2019-03-30T01:22:49.303Z,96.2708
2019-03-30T01:23:01.484Z,96.2708
2019-03-30T01:23:13.663Z,96.1670
2019-03-30T01:23:25.839Z,96.2708
2019-03-30T01:23:37.039Z,96.2708
2019-03-30T01:23:49.222Z,96.3745
2019-03-30T01:24:01.396Z,96.4844
2019-03-30T01:24:13.592Z,96.5881
2019-03-30T01:24:25.765Z,96.6919
2019-03-30T01:24:37.963Z,96.7957
2019-03-30T01:24:50.145Z,96.8994
2019-03-30T01:25:01.329Z,96.7957
2019-03-30T01:25:13.543Z,96.8994
2019-03-30T01:25:25.725Z,97.0032
2019-03-30T01:25:37.899Z,97.2168
2019-03-30T01:25:50.069Z,97.2778
2019-03-30T01:26:02.269Z,97.4854
2019-03-30T01:26:14.473Z,97.5891
2019-03-30T01:26:26.657Z,97.5891
2019-03-30T01:26:38.833Z,97.6929
2019-03-30T01:26:51.026Z,97.8577
2019-03-30T01:27:03.196Z,97.8577
2019-03-30T01:27:15.391Z,97.8577
2019-03-30T01:27:27.604Z,97.8577
2019-03-30T01:27:39.805Z,97.8149
2019-03-30T01:27:51.991Z,97.9187
2019-03-30T01:28:04.165Z,97.9187
2019-03-30T01:28:16.343Z,98.0225
2019-03-30T01:28:28.527Z,98.0225
2019-03-30T01:28:40.697Z,97.9187
2019-03-30T01:28:52.875Z,97.8149
2019-03-30T01:29:05.076Z,97.8149
2019-03-30T01:29:17.257Z,97.7112
2019-03-30T01:29:29.440Z,97.6074
2019-03-30T01:29:41.616Z,97.6074
2019-03-30T01:29:53.797Z,97.5037
2019-03-30T01:30:05.977Z,97.5037
2019-03-30T01:30:23.444Z,97.5037
2019-03-30T01:30:35.429Z,97.5037
2019-03-30T01:30:47.605Z,97.3938
2019-03-30T01:30:58.807Z,97.2900
2019-03-30T01:31:10.977Z,97.1863
2019-03-30T01:31:23.158Z,97.1863
2019-03-30T01:31:35.352Z,97.1863
2019-03-30T01:31:47.544Z,97.1863
2019-03-30T01:31:58.732Z,97.1863
2019-03-30T01:32:10.933Z,97.1863
2019-03-30T01:32:23.115Z,97.1436
2019-03-30T01:32:35.378Z,97.0398
2019-03-30T01:32:47.556Z,97.0398
2019-03-30T01:32:59.730Z,96.9360
2019-03-30T01:33:11.913Z,96.9360
2019-03-30T01:33:24.099Z,96.8262
2019-03-30T01:33:36.276Z,96.8262
2019-03-30T01:33:48.447Z,96.7224
2019-03-30T01:34:00.628Z,96.6187
2019-03-30T01:34:12.815Z,96.5149
2019-03-30T01:34:24.993Z,96.4539
2019-03-30T01:34:37.181Z,96.4539
2019-03-30T01:34:49.355Z,96.3501
2019-03-30T01:35:01.572Z,96.3501
2019-03-30T01:35:12.906Z,96.2463
2019-03-30T01:35:25.289Z,96.2463
2019-03-30T01:35:37.569Z,96.2463
2019-03-30T01:35:49.748Z,96.2463
2019-03-30T01:36:01.926Z,96.2463
2019-03-30T01:36:14.096Z,96.2463
2019-03-30T01:36:26.275Z,96.3501
2019-03-30T01:36:38.449Z,96.3501
2019-03-30T01:36:50.629Z,96.3501
2019-03-30T01:37:02.847Z,96.3501
2019-03-30T01:37:15.027Z,96.3501
2019-03-30T01:37:27.209Z,96.3928
2019-03-30T01:37:39.413Z,96.3928
2019-03-30T01:37:51.605Z,96.2891
2019-03-30T01:38:03.795Z,96.1853
2019-03-30T01:38:15.966Z,96.0815
2019-03-30T01:38:28.168Z,95.9778
2019-03-30T01:38:40.343Z,95.9167
2019-03-30T01:38:52.535Z,95.8069
2019-03-30T01:39:04.716Z,95.8069
2019-03-30T01:39:16.913Z,95.8069
2019-03-30T01:39:28.120Z,96.0205
2019-03-30T01:39:40.295Z,96.0205
2019-03-30T01:39:52.483Z,96.1243
2019-03-30T01:40:04.669Z,96.2280
2019-03-30T01:40:16.871Z,96.3318
2019-03-30T01:40:29.046Z,96.4355
2019-03-30T01:40:41.238Z,96.4355
2019-03-30T01:40:53.423Z,96.4355
2019-03-30T01:41:05.609Z,96.4355
2019-03-30T01:41:17.801Z,96.3318
2019-03-30T01:41:29.993Z,96.3745
2019-03-30T01:41:42.341Z,96.2708
2019-03-30T01:41:53.535Z,96.2708
2019-03-30T01:42:05.706Z,96.2708
2019-03-30T01:42:17.919Z,96.1670
2019-03-30T01:42:30.111Z,96.1670
2019-03-30T01:42:42.321Z,96.1670
2019-03-30T01:42:54.505Z,96.2708
2019-03-30T01:43:06.710Z,96.3745
2019-03-30T01:43:18.909Z,96.4844
2019-03-30T01:43:31.101Z,96.6919
2019-03-30T01:43:43.293Z,96.8994
2019-03-30T01:43:55.487Z,97.1130
2019-03-30T01:44:07.667Z,97.2168
2019-03-30T01:44:19.855Z,97.3206
2019-03-30T01:44:32.052Z,97.4243
2019-03-30T01:44:44.225Z,97.4243
2019-03-30T01:44:55.409Z,97.5281
2019-03-30T01:45:07.576Z,97.5281
2019-03-30T01:45:19.763Z,97.6318
2019-03-30T01:45:31.964Z,97.7966
2019-03-30T01:45:44.153Z,97.9065
2019-03-30T01:45:56.328Z,98.0103
2019-03-30T01:46:08.531Z,98.0103
2019-03-30T01:46:20.705Z,98.0103
2019-03-30T01:46:32.885Z,97.9065
2019-03-30T01:46:45.082Z,97.7966
2019-03-30T01:46:57.295Z,97.6929
2019-03-30T01:47:09.483Z,97.5891
2019-03-30T01:47:21.796Z,97.5891
2019-03-30T01:47:32.985Z,97.5891
2019-03-30T01:47:45.167Z,97.6929
2019-03-30T01:47:57.335Z,97.7966
2019-03-30T01:48:09.513Z,97.8577
2019-03-30T01:48:21.811Z,98.0713
2019-03-30T01:48:32.985Z,98.3826
2019-03-30T01:48:45.169Z,98.4436
2019-03-30T01:48:57.362Z,98.6511
2019-03-30T01:49:09.533Z,98.6511
2019-03-30T01:49:21.719Z,98.7122
2019-03-30T01:49:32.921Z,98.6084
2019-03-30T01:49:45.103Z,98.5046
2019-03-30T01:49:57.296Z,98.3948
2019-03-30T01:50:17.092Z,98.2910
2019-03-30T01:50:26.619Z,98.2910
2019-03-30T01:50:38.793Z,98.3948
2019-03-30T01:50:51.091Z,98.3948
2019-03-30T01:51:02.283Z,98.2910
2019-03-30T01:51:14.459Z,98.1873
2019-03-30T01:51:26.635Z,98.0835
2019-03-30T01:51:38.809Z,97.9797
2019-03-30T01:51:50.995Z,98.0408
2019-03-30T01:52:03.175Z,98.1445
2019-03-30T01:52:15.353Z,98.1445
2019-03-30T01:52:27.545Z,98.0408
2019-03-30T01:52:39.733Z,98.0408
2019-03-30T01:52:51.927Z,97.9370
2019-03-30T01:53:04.116Z,97.8333
2019-03-30T01:53:16.289Z,97.7234
2019-03-30T01:53:28.479Z,97.6196
2019-03-30T01:53:40.655Z,97.6196
2019-03-30T01:53:52.833Z,97.6196
2019-03-30T01:54:05.009Z,97.6196
2019-03-30T01:54:17.205Z,97.5159
2019-03-30T01:54:29.375Z,97.4121
2019-03-30T01:54:41.547Z,97.3083
2019-03-30T01:54:53.731Z,97.2473
2019-03-30T01:55:05.933Z,97.1436
2019-03-30T01:55:18.135Z,97.0398
2019-03-30T01:55:30.305Z,97.0398
2019-03-30T01:55:42.493Z,96.9360
2019-03-30T01:55:54.675Z,96.8262
2019-03-30T01:56:06.845Z,96.6187
2019-03-30T01:56:19.027Z,96.6187
2019-03-30T01:56:31.214Z,96.5149
2019-03-30T01:56:43.393Z,96.5576
2019-03-30T01:56:55.578Z,96.5576
2019-03-30T01:57:07.755Z,96.4539
2019-03-30T01:57:19.953Z,96.4539
2019-03-30T01:57:32.135Z,96.4539
2019-03-30T01:57:44.315Z,96.4539
2019-03-30T01:57:56.503Z,96.4539
2019-03-30T01:58:08.677Z,96.4539
2019-03-30T01:58:20.863Z,96.5576
2019-03-30T01:58:33.035Z,96.4539
2019-03-30T01:58:45.224Z,96.4539
2019-03-30T01:58:57.407Z,96.4539
2019-03-30T01:59:09.585Z,96.4539
2019-03-30T01:59:21.773Z,96.4539
2019-03-30T01:59:33.945Z,96.4539
2019-03-30T01:59:46.125Z,96.4539
2019-03-30T01:59:58.303Z,96.4966
2019-03-30T02:00:10.498Z,96.4966
2019-03-30T02:00:22.705Z,96.3928
2019-03-30T02:00:34.895Z,96.2891
2019-03-30T02:00:47.075Z,96.2891
2019-03-30T02:00:59.428Z,96.2891
2019-03-30T02:01:11.605Z,96.4966
2019-03-30T02:01:23.801Z,96.4966
2019-03-30T02:01:35.975Z,96.3928
2019-03-30T02:01:48.145Z,96.2891
2019-03-30T02:02:00.451Z,96.1853
2019-03-30T02:02:11.750Z,96.1243
2019-03-30T02:02:23.955Z,96.0205
2019-03-30T02:02:36.166Z,96.0205
2019-03-30T02:02:48.369Z,96.0205
2019-03-30T02:03:00.543Z,96.0205
2019-03-30T02:03:12.717Z,96.0205
2019-03-30T02:03:24.885Z,96.1243
2019-03-30T02:03:37.063Z,96.1243
2019-03-30T02:03:49.243Z,96.1243
2019-03-30T02:04:01.427Z,96.1243
2019-03-30T02:04:13.596Z,96.2280
2019-03-30T02:04:25.783Z,96.2708
2019-03-30T02:04:37.965Z,96.2708
2019-03-30T02:04:50.149Z,96.2708
2019-03-30T02:05:02.349Z,96.2708
2019-03-30T02:05:14.525Z,96.2708
2019-03-30T02:05:26.700Z,96.2708
2019-03-30T02:05:38.891Z,96.3745
2019-03-30T02:05:51.076Z,96.4844
2019-03-30T02:06:03.361Z,96.6919
2019-03-30T02:06:15.543Z,96.7957
2019-03-30T02:06:27.719Z,96.6919
2019-03-30T02:06:39.911Z,96.7957
2019-03-30T02:06:52.092Z,97.0032
2019-03-30T02:07:04.287Z,97.2168
2019-03-30T02:07:16.483Z,97.4243
2019-03-30T02:07:28.673Z,97.4243
2019-03-30T02:07:40.869Z,97.4243
2019-03-30T02:07:53.057Z,97.3206
2019-03-30T02:08:05.257Z,97.3206
2019-03-30T02:08:17.448Z,97.3206
2019-03-30T02:08:29.633Z,97.4243
2019-03-30T02:08:41.817Z,97.4243
2019-03-30T02:08:53.985Z,97.5281
2019-03-30T02:09:06.186Z,97.7417
2019-03-30T02:09:18.365Z,97.7966
2019-03-30T02:09:30.595Z,97.9065
2019-03-30T02:09:42.794Z,98.0103
2019-03-30T02:09:54.965Z,98.0103
2019-03-30T02:10:07.145Z,98.0103
2019-03-30T02:10:18.325Z,98.1140
2019-03-30T02:10:30.503Z,98.1140
2019-03-30T02:10:42.685Z,98.1750
2019-03-30T02:10:54.873Z,98.1750
2019-03-30T02:11:07.065Z,98.1750
2019-03-30T02:11:19.245Z,98.1750
2019-03-30T02:11:31.423Z,98.1750
2019-03-30T02:11:43.615Z,98.2788
2019-03-30T02:11:55.777Z,98.2788
2019-03-30T02:12:06.957Z,98.2788
2019-03-30T02:12:19.153Z,98.3826
2019-03-30T02:12:31.346Z,98.3826
2019-03-30T02:12:43.515Z,98.3826
2019-03-30T02:12:55.725Z,98.4863
2019-03-30T02:13:07.910Z,98.4863
2019-03-30T02:13:20.097Z,98.4863
2019-03-30T02:13:32.269Z,98.4436
2019-03-30T02:13:44.463Z,98.4436
2019-03-30T02:13:56.787Z,98.4436
2019-03-30T02:14:08.959Z,98.4863
2019-03-30T02:14:21.139Z,98.4436
2019-03-30T02:14:33.335Z,98.5474
2019-03-30T02:14:45.553Z,98.5474
2019-03-30T02:14:57.739Z,98.6511
2019-03-30T02:15:09.913Z,98.6511
2019-03-30T02:15:22.095Z,98.6511
2019-03-30T02:15:34.328Z,98.6511
2019-03-30T02:15:46.505Z,98.6511
2019-03-30T02:15:58.693Z,98.7549
2019-03-30T02:16:10.885Z,98.7549
2019-03-30T02:16:23.187Z,98.8586
2019-03-30T02:16:34.375Z,98.9685
2019-03-30T02:16:46.563Z,99.0234
2019-03-30T02:16:58.751Z,99.0234
2019-03-30T02:17:10.933Z,99.0234
2019-03-30T02:17:22.129Z,99.0234
2019-03-30T02:17:34.305Z,98.9197
2019-03-30T02:17:46.495Z,98.8159
2019-03-30T02:17:58.679Z,98.8159
2019-03-30T02:18:10.855Z,98.7122
2019-03-30T02:18:23.033Z,98.7122
2019-03-30T02:18:35.223Z,98.7122
2019-03-30T02:18:46.415Z,98.6084
2019-03-30T02:18:57.602Z,98.6084
2019-03-30T02:19:09.803Z,98.6084
2019-03-30T02:19:21.996Z,98.6084
2019-03-30T02:19:34.189Z,98.5046
2019-03-30T02:19:46.385Z,98.5046
2019-03-30T02:19:58.556Z,98.3948
2019-03-30T02:20:10.749Z,98.2910
2019-03-30T02:20:30.606Z,98.1873
2019-03-30T02:20:40.058Z,97.9797
2019-03-30T02:20:52.241Z,98.0225
2019-03-30T02:21:04.445Z,97.9187
2019-03-30T02:21:16.627Z,97.9187
2019-03-30T02:21:28.810Z,97.8149
2019-03-30T02:21:40.994Z,97.8149
2019-03-30T02:21:53.201Z,97.8149
2019-03-30T02:22:05.379Z,97.8149
2019-03-30T02:22:17.557Z,97.8149
2019-03-30T02:22:29.777Z,97.9187
2019-03-30T02:22:42.099Z,98.0225
2019-03-30T02:22:54.275Z,98.0225
2019-03-30T02:23:06.457Z,98.0225
2019-03-30T02:23:18.638Z,98.0835
2019-03-30T02:23:30.832Z,98.1873
2019-03-30T02:23:43.015Z,98.1873
2019-03-30T02:23:55.209Z,98.0835
2019-03-30T02:24:07.383Z,97.9797
2019-03-30T02:24:19.560Z,97.8760
2019-03-30T02:24:31.749Z,97.7722
2019-03-30T02:24:43.937Z,97.6685
2019-03-30T02:24:55.123Z,97.6074
2019-03-30T02:25:07.311Z,97.6074
2019-03-30T02:25:19.619Z,97.5037
2019-03-30T02:25:31.799Z,97.5037
2019-03-30T02:25:44.043Z,97.5037
2019-03-30T02:25:56.219Z,97.5037
2019-03-30T02:26:08.399Z,97.5037
2019-03-30T02:26:20.587Z,97.3938
2019-03-30T02:26:32.767Z,97.2900
2019-03-30T02:26:44.969Z,97.1863
2019-03-30T02:26:57.167Z,97.1863
2019-03-30T02:27:08.357Z,97.0825